createdAt,value
2023-05-17T00:00:49.575Z,11.08
2023-05-17T00:05:51.373Z,11.01
2023-05-17T00:10:53.282Z,10.95
2023-05-17T00:15:55.021Z,10.91
2023-05-17T00:20:57.228Z,10.92
2023-05-17T00:25:58.927Z,10.88
2023-05-17T00:31:00.723Z,10.76
2023-05-17T00:36:05.023Z,10.74
2023-05-17T00:41:06.830Z,10.78
2023-05-17T00:46:08.770Z,10.69
2023-05-17T00:51:11.532Z,10.68
2023-05-17T00:56:13.844Z,10.65
2023-05-17T01:01:15.818Z,10.63
2023-05-17T01:06:19.701Z,10.63
2023-05-17T01:11:42.482Z,10.56
2023-05-17T01:16:46.560Z,10.53
2023-05-17T01:22:15.907Z,10.50
2023-05-17T01:27:21.341Z,10.50
2023-05-17T01:32:25.839Z,10.45
2023-05-17T01:37:27.600Z,10.36
2023-05-17T01:42:33.281Z,10.38
2023-05-17T01:47:46.857Z,10.34
2023-05-17T01:52:59.680Z,10.29
2023-05-17T01:58:03.738Z,10.32
2023-05-17T02:03:06.310Z,10.22
2023-05-17T02:08:08.108Z,10.20
2023-05-17T02:13:09.831Z,10.13
2023-05-17T02:18:12.928Z,10.09
2023-05-17T02:23:14.990Z,10.02
2023-05-17T02:28:17.067Z,10.01
2023-05-17T02:33:19.098Z,9.95
2023-05-17T02:38:21.715Z,9.85
2023-05-17T02:43:23.457Z,9.81
2023-05-17T02:48:25.251Z,9.85
2023-05-17T02:53:27.620Z,9.88
2023-05-17T02:58:29.922Z,9.77
2023-05-17T03:03:31.886Z,9.63
2023-05-17T03:08:34.855Z,9.59
2023-05-17T03:13:37.948Z,9.53
2023-05-17T03:18:40.196Z,9.57
2023-05-17T03:23:42.332Z,9.57
2023-05-17T03:28:44.671Z,9.55
2023-05-17T03:33:46.882Z,9.53
2023-05-17T03:38:49.132Z,9.49
2023-05-17T03:43:52.084Z,9.51
2023-05-17T03:48:55.549Z,9.48
2023-05-17T03:53:59.154Z,9.44
2023-05-17T03:59:02.329Z,9.36
2023-05-17T04:04:05.962Z,9.37
2023-05-17T04:09:09.648Z,9.44
2023-05-17T04:14:11.919Z,9.47
2023-05-17T04:19:14.355Z,9.53
2023-05-17T04:24:16.364Z,9.61
2023-05-17T04:29:18.669Z,9.49
2023-05-17T04:34:22.292Z,9.51
2023-05-17T04:39:24.726Z,9.44
2023-05-17T04:44:27.202Z,9.40
2023-05-17T04:49:30.140Z,9.43
2023-05-17T04:54:32.698Z,9.49
2023-05-17T04:59:34.868Z,9.63
2023-05-17T05:04:36.931Z,9.52
2023-05-17T05:09:38.982Z,9.55
2023-05-17T05:14:42.293Z,9.54
2023-05-17T05:19:44.506Z,9.63
2023-05-17T05:24:47.266Z,9.66
2023-05-17T05:29:49.520Z,9.68
2023-05-17T05:34:51.502Z,9.62
2023-05-17T05:39:53.348Z,9.54
2023-05-17T05:44:55.496Z,9.46
2023-05-17T05:49:59.017Z,9.34
2023-05-17T05:55:01.212Z,9.32
2023-05-17T06:00:04.840Z,9.41
2023-05-17T06:05:14.497Z,9.50
2023-05-17T06:10:16.292Z,9.50
2023-05-17T06:15:18.279Z,9.64
2023-05-17T06:20:20.208Z,9.70
2023-05-17T06:25:22.288Z,9.84
2023-05-17T06:30:24.216Z,9.81
2023-05-17T06:35:26.153Z,9.94
2023-05-17T06:40:28.239Z,10.00
2023-05-17T06:45:30.322Z,10.02
2023-05-17T06:50:32.379Z,10.06
2023-05-17T06:55:34.418Z,10.15
2023-05-17T07:00:36.856Z,10.06
2023-05-17T07:05:39.035Z,10.05
2023-05-17T07:10:40.752Z,10.11
2023-05-17T07:15:43.260Z,10.27
2023-05-17T07:20:45.058Z,10.38
2023-05-17T07:25:46.772Z,10.54
2023-05-17T07:30:48.483Z,10.64
2023-05-17T07:35:50.268Z,10.82
2023-05-17T07:40:52.039Z,11.00
2023-05-17T07:45:53.774Z,11.10
2023-05-17T07:50:55.622Z,11.19
2023-05-17T07:55:57.367Z,11.28
2023-05-17T08:00:59.728Z,11.38
2023-05-17T08:06:01.759Z,11.48
2023-05-17T08:11:03.956Z,11.66
2023-05-17T08:16:13.664Z,11.55
2023-05-17T08:21:16.420Z,11.53
2023-05-17T08:26:18.982Z,11.69
2023-05-17T08:31:22.961Z,11.94
2023-05-17T08:36:24.825Z,12.09
2023-05-17T08:41:27.552Z,12.32
2023-05-17T08:46:31.405Z,12.44
2023-05-17T08:51:33.329Z,12.56
2023-05-17T08:56:36.725Z,12.72
2023-05-17T09:01:41.872Z,12.76
2023-05-17T09:06:44.710Z,12.73
2023-05-17T09:11:46.696Z,12.65
2023-05-17T09:16:58.436Z,12.67
2023-05-17T09:22:01.141Z,12.83
2023-05-17T09:27:03.849Z,13.11
2023-05-17T09:32:16.928Z,13.20
2023-05-17T09:37:19.903Z,13.10
2023-05-17T09:42:26.374Z,12.90
2023-05-17T09:47:32.376Z,12.87
2023-05-17T09:52:36.971Z,12.71
2023-05-17T09:57:40.479Z,12.78
2023-05-17T10:02:44.044Z,13.06
2023-05-17T10:07:47.829Z,13.44
2023-05-17T10:12:50.578Z,13.33
2023-05-17T10:17:53.561Z,13.16
2023-05-17T10:22:58.504Z,13.41
2023-05-17T10:28:02.054Z,13.53
2023-05-17T10:33:04.845Z,13.79
2023-05-17T10:38:06.753Z,14.15
2023-05-17T10:43:10.407Z,14.36
2023-05-17T10:48:17.469Z,14.55
2023-05-17T10:53:19.501Z,14.33
2023-05-17T10:58:22.493Z,14.13
2023-05-17T11:03:29.695Z,14.36
2023-05-17T11:08:32.288Z,14.48
2023-05-17T11:13:34.072Z,14.47
2023-05-17T11:18:49.902Z,14.33
2023-05-17T11:23:56.411Z,14.80
2023-05-17T11:29:05.025Z,14.98
2023-05-17T11:34:06.917Z,14.95
2023-05-17T11:39:14.468Z,15.17
2023-05-17T11:44:30.835Z,15.15
2023-05-17T11:49:37.430Z,15.13
2023-05-17T11:54:40.254Z,14.92
2023-05-17T11:59:43.172Z,14.78
2023-05-17T12:04:44.956Z,14.75
2023-05-17T12:09:46.989Z,14.99
2023-05-17T12:14:50.473Z,15.15
2023-05-17T12:19:54.060Z,15.29
2023-05-17T12:24:55.976Z,14.60
2023-05-17T12:29:57.874Z,14.79
2023-05-17T12:35:00.285Z,15.20
2023-05-17T12:40:05.111Z,15.80
2023-05-17T12:45:07.933Z,15.55
2023-05-17T12:50:10.089Z,15.63
2023-05-17T12:55:13.359Z,15.88
2023-05-17T13:00:15.934Z,15.81
2023-05-17T13:05:24.341Z,15.84
2023-05-17T13:10:27.842Z,15.62
2023-05-17T13:15:31.556Z,15.61
2023-05-17T13:20:33.293Z,15.50
2023-05-17T13:25:36.731Z,15.43
2023-05-17T13:30:39.972Z,15.33
2023-05-17T13:35:41.904Z,15.00
2023-05-17T13:40:43.725Z,15.06
2023-05-17T13:45:46.011Z,15.09
2023-05-17T13:50:47.936Z,15.03
2023-05-17T13:55:49.697Z,15.05
2023-05-17T14:00:52.140Z,14.93
2023-05-17T14:05:54.361Z,14.83
2023-05-17T14:11:00.326Z,14.69
2023-05-17T14:16:01.992Z,14.99
2023-05-17T14:21:03.819Z,15.28
2023-05-17T14:26:07.468Z,15.37
2023-05-17T14:31:10.699Z,15.29
2023-05-17T14:36:13.871Z,15.20
2023-05-17T14:41:18.386Z,15.16
2023-05-17T14:46:20.352Z,15.24
2023-05-17T14:51:22.714Z,15.11
2023-05-17T14:56:25.422Z,14.87
2023-05-17T15:01:27.192Z,14.89
2023-05-17T15:06:30.227Z,14.84
2023-05-17T15:11:31.988Z,14.40
2023-05-17T15:16:34.684Z,14.48
2023-05-17T15:21:36.675Z,14.47
2023-05-17T15:26:38.553Z,14.34
2023-05-17T15:31:40.273Z,14.24
2023-05-17T15:36:42.279Z,14.20
2023-05-17T15:41:45.536Z,14.28
2023-05-17T15:46:47.402Z,13.99
2023-05-17T15:51:49.150Z,13.85
2023-05-17T15:56:51.026Z,13.93
2023-05-17T16:01:52.851Z,13.76
2023-05-17T16:06:54.557Z,13.61
2023-05-17T16:11:56.272Z,13.66
2023-05-17T16:16:58.301Z,13.53
2023-05-17T16:22:00.416Z,13.46
2023-05-17T16:27:03.784Z,13.49
2023-05-17T16:32:07.662Z,13.49
2023-05-17T16:37:10.152Z,13.48
2023-05-17T16:42:12.044Z,13.42
2023-05-17T16:47:13.899Z,13.52
2023-05-17T16:52:15.729Z,13.64
2023-05-17T16:57:17.518Z,13.55
2023-05-17T17:02:19.956Z,13.47
2023-05-17T17:07:21.753Z,13.53
2023-05-17T17:12:25.198Z,13.47
2023-05-17T17:17:29.582Z,13.38
2023-05-17T17:22:31.950Z,13.29
2023-05-17T17:27:37.252Z,13.28
2023-05-17T17:32:39.161Z,13.20
2023-05-17T17:37:41.072Z,13.17
2023-05-17T17:42:42.800Z,12.98
2023-05-17T17:47:44.858Z,12.85
2023-05-17T17:52:46.893Z,12.79
2023-05-17T17:57:48.791Z,12.73
2023-05-17T18:02:50.829Z,12.72
2023-05-17T18:07:52.785Z,12.69
2023-05-17T18:12:54.615Z,12.68
2023-05-17T18:17:56.992Z,12.57
2023-05-17T18:22:58.769Z,12.47
2023-05-17T18:28:00.638Z,12.40
2023-05-17T18:33:04.646Z,12.37
2023-05-17T18:38:06.526Z,12.39
2023-05-17T18:43:08.285Z,12.35
2023-05-17T18:48:10.355Z,12.27
2023-05-17T18:53:12.936Z,12.28
2023-05-17T18:58:14.877Z,12.36
2023-05-17T19:03:17.006Z,12.42
2023-05-17T19:08:18.675Z,12.47
2023-05-17T19:13:20.438Z,12.50
2023-05-17T19:18:22.232Z,12.47
2023-05-17T19:23:24.238Z,12.17
2023-05-17T19:28:26.174Z,11.85
2023-05-17T19:33:32.103Z,11.61
2023-05-17T19:38:34.164Z,11.39
2023-05-17T19:43:37.088Z,11.20
2023-05-17T19:48:40.457Z,11.03
2023-05-17T19:53:52.432Z,10.89
2023-05-17T19:58:55.673Z,10.79
2023-05-17T20:03:57.603Z,10.61
2023-05-17T20:08:59.583Z,10.48
2023-05-17T20:14:01.274Z,10.38
2023-05-17T20:19:03.062Z,10.22
2023-05-17T20:24:06.722Z,10.10
2023-05-17T20:29:08.714Z,9.90
2023-05-17T20:34:11.230Z,9.77
2023-05-17T20:39:15.149Z,9.70
2023-05-17T20:44:19.576Z,9.71
2023-05-17T20:49:21.432Z,9.59
2023-05-17T20:54:25.371Z,9.46
2023-05-17T20:59:27.118Z,9.38
2023-05-17T21:04:28.964Z,9.25
2023-05-17T21:09:30.814Z,9.22
2023-05-17T21:14:32.526Z,9.05
2023-05-17T21:19:34.274Z,9.05
2023-05-17T21:24:36.058Z,8.98
2023-05-17T21:29:37.821Z,8.91
2023-05-17T21:34:39.915Z,8.93
2023-05-17T21:39:41.679Z,8.86
2023-05-17T21:44:43.363Z,8.90
2023-05-17T21:49:45.155Z,8.92
2023-05-17T21:54:46.931Z,8.73
2023-05-17T21:59:50.728Z,8.47
2023-05-17T22:04:53.456Z,8.39
2023-05-17T22:09:55.259Z,8.34
2023-05-17T22:14:57.367Z,8.25
2023-05-17T22:20:05.977Z,8.15
2023-05-17T22:25:08.645Z,8.18
2023-05-17T22:30:10.775Z,8.06
2023-05-17T22:35:12.869Z,8.01
2023-05-17T22:40:14.719Z,7.95
2023-05-17T22:45:16.558Z,7.98
2023-05-17T22:50:19.166Z,7.97
2023-05-17T22:55:21.380Z,7.89
2023-05-17T23:00:23.863Z,7.90
2023-05-17T23:05:25.582Z,7.74
2023-05-17T23:10:27.257Z,7.67
2023-05-17T23:15:29.140Z,7.59
2023-05-17T23:20:31.165Z,7.68
2023-05-17T23:25:32.921Z,7.72
2023-05-17T23:30:38.377Z,7.71
2023-05-17T23:35:40.128Z,7.77
2023-05-17T23:40:42.029Z,7.72
2023-05-17T23:45:44.367Z,7.57
2023-05-17T23:50:46.385Z,7.51
2023-05-17T23:55:48.193Z,7.49
